sensor_id;sensor_type;location;lat;lon;timestamp;P1;durP1;ratioP1;P2;durP2;ratioP2
63394;SDS011;49531;-34.520;150.798;2023-08-12T00:00:25;3.00;;;0.90;;
63394;SDS011;49531;-34.520;150.798;2023-08-12T00:02:53;2.05;;;1.00;;
63394;SDS011;49531;-34.520;150.798;2023-08-12T00:05:20;3.28;;;1.00;;
63394;SDS011;49531;-34.520;150.798;2023-08-12T00:07:48;2.67;;;1.05;;
63394;SDS011;49531;-34.520;150.798;2023-08-12T00:10:15;1.73;;;0.95;;
63394;SDS011;49531;-34.520;150.798;2023-08-12T00:12:42;1.60;;;1.08;;
63394;SDS011;49531;-34.520;150.798;2023-08-12T00:15:10;3.63;;;1.17;;
63394;SDS011;49531;-34.520;150.798;2023-08-12T00:17:37;1.85;;;0.90;;
63394;SDS011;49531;-34.520;150.798;2023-08-12T00:20:07;1.02;;;0.90;;
63394;SDS011;49531;-34.520;150.798;2023-08-12T00:22:36;2.35;;;0.90;;
63394;SDS011;49531;-34.520;150.798;2023-08-12T00:25:04;3.67;;;1.10;;
63394;SDS011;49531;-34.520;150.798;2023-08-12T00:27:32;3.15;;;1.10;;
63394;SDS011;49531;-34.520;150.798;2023-08-12T00:29:59;1.75;;;1.00;;
63394;SDS011;49531;-34.520;150.798;2023-08-12T00:32:26;2.22;;;1.00;;
63394;SDS011;49531;-34.520;150.798;2023-08-12T00:34:53;1.95;;;1.13;;
63394;SDS011;49531;-34.520;150.798;2023-08-12T00:37:20;3.70;;;0.90;;
63394;SDS011;49531;-34.520;150.798;2023-08-12T00:39:47;1.48;;;0.90;;
63394;SDS011;49531;-34.520;150.798;2023-08-12T00:42:15;1.45;;;0.80;;
63394;SDS011;49531;-34.520;150.798;2023-08-12T00:44:42;3.17;;;0.90;;
63394;SDS011;49531;-34.520;150.798;2023-08-12T00:47:09;1.92;;;1.08;;
63394;SDS011;49531;-34.520;150.798;2023-08-12T00:49:36;1.00;;;0.90;;
63394;SDS011;49531;-34.520;150.798;2023-08-12T00:52:05;2.72;;;0.95;;
63394;SDS011;49531;-34.520;150.798;2023-08-12T00:54:32;2.33;;;1.08;;
63394;SDS011;49531;-34.520;150.798;2023-08-12T00:57:00;2.10;;;1.00;;
63394;SDS011;49531;-34.520;150.798;2023-08-12T00:59:27;1.60;;;0.90;;
63394;SDS011;49531;-34.520;150.798;2023-08-12T01:01:54;1.40;;;0.90;;
63394;SDS011;49531;-34.520;150.798;2023-08-12T01:04:22;2.13;;;0.98;;
63394;SDS011;49531;-34.520;150.798;2023-08-12T01:06:49;1.80;;;1.00;;
63394;SDS011;49531;-34.520;150.798;2023-08-12T01:09:16;0.98;;;0.90;;
63394;SDS011;49531;-34.520;150.798;2023-08-12T01:15:10;3.72;;;0.98;;
63394;SDS011;49531;-34.520;150.798;2023-08-12T01:17:46;1.63;;;1.10;;
63394;SDS011;49531;-34.520;150.798;2023-08-12T01:20:17;3.42;;;1.13;;
63394;SDS011;49531;-34.520;150.798;2023-08-12T01:22:55;2.17;;;1.10;;
63394;SDS011;49531;-34.520;150.798;2023-08-12T01:25:25;3.97;;;1.20;;
63394;SDS011;49531;-34.520;150.798;2023-08-12T01:27:52;3.58;;;1.15;;
63394;SDS011;49531;-34.520;150.798;2023-08-12T01:30:19;2.42;;;1.33;;
63394;SDS011;49531;-34.520;150.798;2023-08-12T01:33:00;2.35;;;1.20;;
63394;SDS011;49531;-34.520;150.798;2023-08-12T01:35:40;6.22;;;1.45;;
63394;SDS011;49531;-34.520;150.798;2023-08-12T01:38:12;2.65;;;1.52;;
63394;SDS011;49531;-34.520;150.798;2023-08-12T01:40:39;1.80;;;1.30;;
63394;SDS011;49531;-34.520;150.798;2023-08-12T01:43:07;4.85;;;1.40;;
63394;SDS011;49531;-34.520;150.798;2023-08-12T01:45:35;4.25;;;1.70;;
63394;SDS011;49531;-34.520;150.798;2023-08-12T01:48:02;4.03;;;1.50;;
63394;SDS011;49531;-34.520;150.798;2023-08-12T01:50:30;4.38;;;1.45;;
63394;SDS011;49531;-34.520;150.798;2023-08-12T01:52:57;246.43;;;14.68;;
63394;SDS011;49531;-34.520;150.798;2023-08-12T01:55:24;169.57;;;10.70;;
63394;SDS011;49531;-34.520;150.798;2023-08-12T01:57:52;111.00;;;6.90;;
63394;SDS011;49531;-34.520;150.798;2023-08-12T02:00:19;48.67;;;4.13;;
63394;SDS011;49531;-34.520;150.798;2023-08-12T02:02:46;32.65;;;3.20;;
63394;SDS011;49531;-34.520;150.798;2023-08-12T02:05:14;22.88;;;2.60;;
63394;SDS011;49531;-34.520;150.798;2023-08-12T02:07:41;17.10;;;2.60;;
63394;SDS011;49531;-34.520;150.798;2023-08-12T02:10:08;14.77;;;2.42;;
63394;SDS011;49531;-34.520;150.798;2023-08-12T02:12:35;10.23;;;2.03;;
63394;SDS011;49531;-34.520;150.798;2023-08-12T02:15:02;10.55;;;2.03;;
63394;SDS011;49531;-34.520;150.798;2023-08-12T02:17:30;7.85;;;1.98;;
63394;SDS011;49531;-34.520;150.798;2023-08-12T02:19:57;4.05;;;1.50;;
63394;SDS011;49531;-34.520;150.798;2023-08-12T02:22:24;6.38;;;1.60;;
63394;SDS011;49531;-34.520;150.798;2023-08-12T02:24:51;4.50;;;1.60;;
63394;SDS011;49531;-34.520;150.798;2023-08-12T02:27:18;2.75;;;1.60;;
63394;SDS011;49531;-34.520;150.798;2023-08-12T02:29:45;8.23;;;1.80;;
63394;SDS011;49531;-34.520;150.798;2023-08-12T02:32:12;9.80;;;1.98;;
63394;SDS011;49531;-34.520;150.798;2023-08-12T02:34:40;4.05;;;1.90;;
63394;SDS011;49531;-34.520;150.798;2023-08-12T02:37:07;4.25;;;2.03;;
63394;SDS011;49531;-34.520;150.798;2023-08-12T02:39:34;3.25;;;2.15;;
63394;SDS011;49531;-34.520;150.798;2023-08-12T02:42:01;7.22;;;2.22;;
63394;SDS011;49531;-34.520;150.798;2023-08-12T02:44:28;4.60;;;2.25;;
63394;SDS011;49531;-34.520;150.798;2023-08-12T02:46:55;5.00;;;2.28;;
63394;SDS011;49531;-34.520;150.798;2023-08-12T02:49:22;4.13;;;2.10;;
63394;SDS011;49531;-34.520;150.798;2023-08-12T02:51:49;3.35;;;2.08;;
63394;SDS011;49531;-34.520;150.798;2023-08-12T02:54:16;3.10;;;1.98;;
63394;SDS011;49531;-34.520;150.798;2023-08-12T02:56:43;6.13;;;2.00;;
63394;SDS011;49531;-34.520;150.798;2023-08-12T02:59:10;3.30;;;1.90;;
63394;SDS011;49531;-34.520;150.798;2023-08-12T03:01:39;4.03;;;1.60;;
63394;SDS011;49531;-34.520;150.798;2023-08-12T03:04:08;3.50;;;1.40;;
63394;SDS011;49531;-34.520;150.798;2023-08-12T03:06:35;1.80;;;1.42;;
63394;SDS011;49531;-34.520;150.798;2023-08-12T03:09:02;2.58;;;1.40;;
63394;SDS011;49531;-34.520;150.798;2023-08-12T03:11:29;1.50;;;1.13;;
63394;SDS011;49531;-34.520;150.798;2023-08-12T03:13:56;3.15;;;1.20;;
63394;SDS011;49531;-34.520;150.798;2023-08-12T03:16:23;2.33;;;1.45;;
63394;SDS011;49531;-34.520;150.798;2023-08-12T03:18:50;1.38;;;1.08;;
63394;SDS011;49531;-34.520;150.798;2023-08-12T03:21:17;3.33;;;1.15;;
63394;SDS011;49531;-34.520;150.798;2023-08-12T03:23:44;1.38;;;1.10;;
63394;SDS011;49531;-34.520;150.798;2023-08-12T03:26:11;2.55;;;1.00;;
63394;SDS011;49531;-34.520;150.798;2023-08-12T03:28:39;1.00;;;0.90;;
63394;SDS011;49531;-34.520;150.798;2023-08-12T03:31:07;1.40;;;0.93;;
63394;SDS011;49531;-34.520;150.798;2023-08-12T03:33:34;1.33;;;1.00;;
63394;SDS011;49531;-34.520;150.798;2023-08-12T03:36:01;1.20;;;1.00;;
63394;SDS011;49531;-34.520;150.798;2023-08-12T03:38:28;1.00;;;0.90;;
63394;SDS011;49531;-34.520;150.798;2023-08-12T03:40:55;1.60;;;1.00;;
63394;SDS011;49531;-34.520;150.798;2023-08-12T03:43:22;0.90;;;0.90;;
63394;SDS011;49531;-34.520;150.798;2023-08-12T03:45:49;1.63;;;1.13;;
63394;SDS011;49531;-34.520;150.798;2023-08-12T03:48:16;1.42;;;1.10;;
63394;SDS011;49531;-34.520;150.798;2023-08-12T03:50:43;1.90;;;0.93;;
63394;SDS011;49531;-34.520;150.798;2023-08-12T03:53:12;1.48;;;1.10;;
63394;SDS011;49531;-34.520;150.798;2023-08-12T03:55:39;2.10;;;0.98;;
63394;SDS011;49531;-34.520;150.798;2023-08-12T03:58:07;1.45;;;0.85;;
63394;SDS011;49531;-34.520;150.798;2023-08-12T04:00:34;1.20;;;1.10;;
63394;SDS011;49531;-34.520;150.798;2023-08-12T04:03:06;1.77;;;1.02;;
63394;SDS011;49531;-34.520;150.798;2023-08-12T04:05:33;1.10;;;1.00;;
63394;SDS011;49531;-34.520;150.798;2023-08-12T04:08:00;2.03;;;1.00;;
63394;SDS011;49531;-34.520;150.798;2023-08-12T04:10:27;1.48;;;0.95;;
63394;SDS011;49531;-34.520;150.798;2023-08-12T04:12:54;1.20;;;0.95;;
63394;SDS011;49531;-34.520;150.798;2023-08-12T04:15:21;1.05;;;0.90;;
63394;SDS011;49531;-34.520;150.798;2023-08-12T04:17:48;1.77;;;1.00;;
63394;SDS011;49531;-34.520;150.798;2023-08-12T04:20:15;4.22;;;0.95;;
63394;SDS011;49531;-34.520;150.798;2023-08-12T04:22:42;2.45;;;1.17;;
63394;SDS011;49531;-34.520;150.798;2023-08-12T04:25:09;1.55;;;1.00;;
63394;SDS011;49531;-34.520;150.798;2023-08-12T04:27:36;1.73;;;1.00;;
63394;SDS011;49531;-34.520;150.798;2023-08-12T04:30:04;1.40;;;1.00;;
63394;SDS011;49531;-34.520;150.798;2023-08-12T04:32:31;1.40;;;1.05;;
63394;SDS011;49531;-34.520;150.798;2023-08-12T04:34:58;2.65;;;1.10;;
63394;SDS011;49531;-34.520;150.798;2023-08-12T04:37:25;1.52;;;1.02;;
63394;SDS011;49531;-34.520;150.798;2023-08-12T04:39:54;1.60;;;1.13;;
63394;SDS011;49531;-34.520;150.798;2023-08-12T04:42:21;2.10;;;1.30;;
63394;SDS011;49531;-34.520;150.798;2023-08-12T04:44:48;2.00;;;1.30;;
63394;SDS011;49531;-34.520;150.798;2023-08-12T04:47:15;1.40;;;1.10;;
63394;SDS011;49531;-34.520;150.798;2023-08-12T04:49:42;1.92;;;1.20;;
63394;SDS011;49531;-34.520;150.798;2023-08-12T04:52:09;2.08;;;1.00;;
63394;SDS011;49531;-34.520;150.798;2023-08-12T04:54:36;1.40;;;1.00;;
63394;SDS011;49531;-34.520;150.798;2023-08-12T04:57:03;1.95;;;1.20;;
63394;SDS011;49531;-34.520;150.798;2023-08-12T04:59:31;2.83;;;1.08;;
63394;SDS011;49531;-34.520;150.798;2023-08-12T05:01:58;2.17;;;1.20;;
63394;SDS011;49531;-34.520;150.798;2023-08-12T05:04:25;1.98;;;1.10;;
63394;SDS011;49531;-34.520;150.798;2023-08-12T05:06:52;0.95;;;0.90;;
63394;SDS011;49531;-34.520;150.798;2023-08-12T05:09:20;1.65;;;1.00;;
63394;SDS011;49531;-34.520;150.798;2023-08-12T05:11:47;2.60;;;1.00;;
63394;SDS011;49531;-34.520;150.798;2023-08-12T05:14:14;1.70;;;1.10;;
63394;SDS011;49531;-34.520;150.798;2023-08-12T05:16:41;4.47;;;1.10;;
63394;SDS011;49531;-34.520;150.798;2023-08-12T05:19:08;3.60;;;1.20;;
63394;SDS011;49531;-34.520;150.798;2023-08-12T05:21:35;1.67;;;1.00;;
63394;SDS011;49531;-34.520;150.798;2023-08-12T05:24:02;2.05;;;1.08;;
63394;SDS011;49531;-34.520;150.798;2023-08-12T05:26:29;2.20;;;1.20;;
63394;SDS011;49531;-34.520;150.798;2023-08-12T05:28:57;1.23;;;1.00;;
63394;SDS011;49531;-34.520;150.798;2023-08-12T05:31:24;1.67;;;1.10;;
63394;SDS011;49531;-34.520;150.798;2023-08-12T05:33:51;1.50;;;1.10;;
63394;SDS011;49531;-34.520;150.798;2023-08-12T05:36:18;2.28;;;1.08;;
63394;SDS011;49531;-34.520;150.798;2023-08-12T05:38:45;2.78;;;1.13;;
63394;SDS011;49531;-34.520;150.798;2023-08-12T05:41:12;1.15;;;0.90;;
63394;SDS011;49531;-34.520;150.798;2023-08-12T05:43:41;1.58;;;1.05;;
63394;SDS011;49531;-34.520;150.798;2023-08-12T05:46:08;1.40;;;1.00;;
63394;SDS011;49531;-34.520;150.798;2023-08-12T05:48:35;1.70;;;1.25;;
63394;SDS011;49531;-34.520;150.798;2023-08-12T05:51:02;2.38;;;1.30;;
63394;SDS011;49531;-34.520;150.798;2023-08-12T05:53:30;2.28;;;1.33;;
63394;SDS011;49531;-34.520;150.798;2023-08-12T05:55:57;1.83;;;1.20;;
63394;SDS011;49531;-34.520;150.798;2023-08-12T05:58:24;2.28;;;1.20;;
63394;SDS011;49531;-34.520;150.798;2023-08-12T06:00:52;2.00;;;1.20;;
63394;SDS011;49531;-34.520;150.798;2023-08-12T06:03:19;2.15;;;1.30;;
63394;SDS011;49531;-34.520;150.798;2023-08-12T06:05:46;2.60;;;1.10;;
63394;SDS011;49531;-34.520;150.798;2023-08-12T06:08:13;1.85;;;1.30;;
63394;SDS011;49531;-34.520;150.798;2023-08-12T06:10:41;1.90;;;1.20;;
63394;SDS011;49531;-34.520;150.798;2023-08-12T06:13:08;3.08;;;1.23;;
63394;SDS011;49531;-34.520;150.798;2023-08-12T06:15:35;2.78;;;1.30;;
63394;SDS011;49531;-34.520;150.798;2023-08-12T06:18:02;3.33;;;1.20;;
63394;SDS011;49531;-34.520;150.798;2023-08-12T06:20:30;2.33;;;1.27;;
63394;SDS011;49531;-34.520;150.798;2023-08-12T06:22:57;1.85;;;1.10;;
63394;SDS011;49531;-34.520;150.798;2023-08-12T06:25:24;2.47;;;1.13;;
63394;SDS011;49531;-34.520;150.798;2023-08-12T06:27:51;2.13;;;1.20;;
63394;SDS011;49531;-34.520;150.798;2023-08-12T06:30:18;1.58;;;1.20;;
63394;SDS011;49531;-34.520;150.798;2023-08-12T06:32:45;1.80;;;1.10;;
63394;SDS011;49531;-34.520;150.798;2023-08-12T06:35:13;1.20;;;1.10;;
63394;SDS011;49531;-34.520;150.798;2023-08-12T06:37:40;2.05;;;1.20;;
63394;SDS011;49531;-34.520;150.798;2023-08-12T06:40:07;1.60;;;1.15;;
63394;SDS011;49531;-34.520;150.798;2023-08-12T06:42:34;2.42;;;1.38;;
63394;SDS011;49531;-34.520;150.798;2023-08-12T06:45:01;1.88;;;1.27;;
63394;SDS011;49531;-34.520;150.798;2023-08-12T06:47:29;1.85;;;1.20;;
63394;SDS011;49531;-34.520;150.798;2023-08-12T06:49:56;1.95;;;1.17;;
63394;SDS011;49531;-34.520;150.798;2023-08-12T06:52:23;1.67;;;1.20;;
63394;SDS011;49531;-34.520;150.798;2023-08-12T06:54:51;2.50;;;1.17;;
63394;SDS011;49531;-34.520;150.798;2023-08-12T06:57:18;4.95;;;1.30;;
63394;SDS011;49531;-34.520;150.798;2023-08-12T06:59:45;4.75;;;1.40;;
63394;SDS011;49531;-34.520;150.798;2023-08-12T07:02:12;3.00;;;1.55;;
63394;SDS011;49531;-34.520;150.798;2023-08-12T07:04:39;1.30;;;1.13;;
63394;SDS011;49531;-34.520;150.798;2023-08-12T07:07:06;4.05;;;1.50;;
63394;SDS011;49531;-34.520;150.798;2023-08-12T07:09:33;4.85;;;1.50;;
63394;SDS011;49531;-34.520;150.798;2023-08-12T07:12:00;4.22;;;1.50;;
63394;SDS011;49531;-34.520;150.798;2023-08-12T07:14:28;2.65;;;1.50;;
63394;SDS011;49531;-34.520;150.798;2023-08-12T07:16:55;2.67;;;1.48;;
63394;SDS011;49531;-34.520;150.798;2023-08-12T07:19:22;1.60;;;1.33;;
63394;SDS011;49531;-34.520;150.798;2023-08-12T07:21:49;3.47;;;1.38;;
63394;SDS011;49531;-34.520;150.798;2023-08-12T07:24:16;1.98;;;1.40;;
63394;SDS011;49531;-34.520;150.798;2023-08-12T07:26:44;5.68;;;1.40;;
63394;SDS011;49531;-34.520;150.798;2023-08-12T07:29:12;5.15;;;1.60;;
63394;SDS011;49531;-34.520;150.798;2023-08-12T07:31:40;1.98;;;1.10;;
63394;SDS011;49531;-34.520;150.798;2023-08-12T07:34:07;2.58;;;1.38;;
63394;SDS011;49531;-34.520;150.798;2023-08-12T07:36:35;1.73;;;1.17;;
63394;SDS011;49531;-34.520;150.798;2023-08-12T07:39:05;2.58;;;1.60;;
63394;SDS011;49531;-34.520;150.798;2023-08-12T07:41:32;1.70;;;1.50;;
63394;SDS011;49531;-34.520;150.798;2023-08-12T07:43:59;2.03;;;1.83;;
63394;SDS011;49531;-34.520;150.798;2023-08-12T07:46:27;3.88;;;1.70;;
63394;SDS011;49531;-34.520;150.798;2023-08-12T07:48:55;2.03;;;1.60;;
63394;SDS011;49531;-34.520;150.798;2023-08-12T07:51:22;3.15;;;1.80;;
63394;SDS011;49531;-34.520;150.798;2023-08-12T07:53:49;3.20;;;1.60;;
63394;SDS011;49531;-34.520;150.798;2023-08-12T07:56:16;2.72;;;1.90;;
63394;SDS011;49531;-34.520;150.798;2023-08-12T07:58:43;3.13;;;1.98;;
63394;SDS011;49531;-34.520;150.798;2023-08-12T08:01:11;4.60;;;2.05;;
63394;SDS011;49531;-34.520;150.798;2023-08-12T08:03:39;3.17;;;1.98;;
63394;SDS011;49531;-34.520;150.798;2023-08-12T08:06:06;2.78;;;1.90;;
63394;SDS011;49531;-34.520;150.798;2023-08-12T08:08:33;2.60;;;1.90;;
63394;SDS011;49531;-34.520;150.798;2023-08-12T08:11:00;3.17;;;2.35;;
63394;SDS011;49531;-34.520;150.798;2023-08-12T08:13:27;2.85;;;1.95;;
63394;SDS011;49531;-34.520;150.798;2023-08-12T08:15:55;4.43;;;2.17;;
63394;SDS011;49531;-34.520;150.798;2023-08-12T08:18:22;4.47;;;2.97;;
63394;SDS011;49531;-34.520;150.798;2023-08-12T08:20:49;7.32;;;3.30;;
63394;SDS011;49531;-34.520;150.798;2023-08-12T08:23:16;3.97;;;2.75;;
63394;SDS011;49531;-34.520;150.798;2023-08-12T08:25:43;7.45;;;4.97;;
63394;SDS011;49531;-34.520;150.798;2023-08-12T08:28:10;8.90;;;6.57;;
63394;SDS011;49531;-34.520;150.798;2023-08-12T08:30:37;6.68;;;4.88;;
63394;SDS011;49531;-34.520;150.798;2023-08-12T08:33:05;5.22;;;3.60;;
63394;SDS011;49531;-34.520;150.798;2023-08-12T08:35:32;4.47;;;3.60;;
63394;SDS011;49531;-34.520;150.798;2023-08-12T08:37:59;4.88;;;3.70;;
63394;SDS011;49531;-34.520;150.798;2023-08-12T08:40:26;6.68;;;3.58;;
63394;SDS011;49531;-34.520;150.798;2023-08-12T08:42:54;8.00;;;3.70;;
63394;SDS011;49531;-34.520;150.798;2023-08-12T08:45:26;4.65;;;3.40;;
63394;SDS011;49531;-34.520;150.798;2023-08-12T08:47:55;6.25;;;3.50;;
63394;SDS011;49531;-34.520;150.798;2023-08-12T08:50:22;4.63;;;3.25;;
63394;SDS011;49531;-34.520;150.798;2023-08-12T08:52:50;4.18;;;3.30;;
63394;SDS011;49531;-34.520;150.798;2023-08-12T08:55:18;4.72;;;3.20;;
63394;SDS011;49531;-34.520;150.798;2023-08-12T08:57:46;5.60;;;3.70;;
63394;SDS011;49531;-34.520;150.798;2023-08-12T09:00:14;5.15;;;3.60;;
63394;SDS011;49531;-34.520;150.798;2023-08-12T09:02:43;4.30;;;3.33;;
63394;SDS011;49531;-34.520;150.798;2023-08-12T09:05:14;5.93;;;3.33;;
63394;SDS011;49531;-34.520;150.798;2023-08-12T09:07:43;3.72;;;2.83;;
63394;SDS011;49531;-34.520;150.798;2023-08-12T09:10:10;3.92;;;3.17;;
63394;SDS011;49531;-34.520;150.798;2023-08-12T09:12:38;3.95;;;3.17;;
63394;SDS011;49531;-34.520;150.798;2023-08-12T09:15:06;4.35;;;3.25;;
63394;SDS011;49531;-34.520;150.798;2023-08-12T09:17:35;4.40;;;2.80;;
63394;SDS011;49531;-34.520;150.798;2023-08-12T09:20:02;4.72;;;2.92;;
63394;SDS011;49531;-34.520;150.798;2023-08-12T09:22:33;4.68;;;2.75;;
63394;SDS011;49531;-34.520;150.798;2023-08-12T09:25:01;5.00;;;2.78;;
63394;SDS011;49531;-34.520;150.798;2023-08-12T09:27:30;3.10;;;2.60;;
63394;SDS011;49531;-34.520;150.798;2023-08-12T09:29:58;5.25;;;2.72;;
63394;SDS011;49531;-34.520;150.798;2023-08-12T09:32:29;5.15;;;2.50;;
63394;SDS011;49531;-34.520;150.798;2023-08-12T09:34:56;4.95;;;2.50;;
63394;SDS011;49531;-34.520;150.798;2023-08-12T09:37:23;3.20;;;2.50;;
63394;SDS011;49531;-34.520;150.798;2023-08-12T09:39:51;3.42;;;2.60;;
63394;SDS011;49531;-34.520;150.798;2023-08-12T09:42:18;4.40;;;2.80;;
63394;SDS011;49531;-34.520;150.798;2023-08-12T09:44:46;4.03;;;2.35;;
63394;SDS011;49531;-34.520;150.798;2023-08-12T09:47:13;3.72;;;2.42;;
63394;SDS011;49531;-34.520;150.798;2023-08-12T09:49:40;3.42;;;2.20;;
63394;SDS011;49531;-34.520;150.798;2023-08-12T09:52:08;3.83;;;2.45;;
63394;SDS011;49531;-34.520;150.798;2023-08-12T09:54:35;3.55;;;2.08;;
63394;SDS011;49531;-34.520;150.798;2023-08-12T09:57:03;4.13;;;2.00;;
63394;SDS011;49531;-34.520;150.798;2023-08-12T09:59:32;3.25;;;2.20;;
63394;SDS011;49531;-34.520;150.798;2023-08-12T10:02:03;2.65;;;2.00;;
63394;SDS011;49531;-34.520;150.798;2023-08-12T10:04:41;4.50;;;2.13;;
63394;SDS011;49531;-34.520;150.798;2023-08-12T10:07:11;4.63;;;2.20;;
63394;SDS011;49531;-34.520;150.798;2023-08-12T10:09:41;3.58;;;1.75;;
63394;SDS011;49531;-34.520;150.798;2023-08-12T10:12:09;3.53;;;2.03;;
63394;SDS011;49531;-34.520;150.798;2023-08-12T10:14:37;2.70;;;1.75;;
63394;SDS011;49531;-34.520;150.798;2023-08-12T10:17:05;4.40;;;1.58;;
63394;SDS011;49531;-34.520;150.798;2023-08-12T10:19:35;2.40;;;1.60;;
63394;SDS011;49531;-34.520;150.798;2023-08-12T10:22:03;2.13;;;1.55;;
63394;SDS011;49531;-34.520;150.798;2023-08-12T10:24:31;3.38;;;1.80;;
63394;SDS011;49531;-34.520;150.798;2023-08-12T10:27:01;3.15;;;1.75;;
63394;SDS011;49531;-34.520;150.798;2023-08-12T10:29:29;4.32;;;1.80;;
63394;SDS011;49531;-34.520;150.798;2023-08-12T10:31:56;2.75;;;1.58;;
63394;SDS011;49531;-34.520;150.798;2023-08-12T10:34:24;2.97;;;1.70;;
63394;SDS011;49531;-34.520;150.798;2023-08-12T10:36:54;2.20;;;1.50;;
63394;SDS011;49531;-34.520;150.798;2023-08-12T10:39:26;1.92;;;1.45;;
63394;SDS011;49531;-34.520;150.798;2023-08-12T10:41:56;3.25;;;1.55;;
63394;SDS011;49531;-34.520;150.798;2023-08-12T10:44:38;2.33;;;1.45;;
63394;SDS011;49531;-34.520;150.798;2023-08-12T10:47:07;2.80;;;1.70;;
63394;SDS011;49531;-34.520;150.798;2023-08-12T10:49:42;2.65;;;1.48;;
63394;SDS011;49531;-34.520;150.798;2023-08-12T10:52:46;3.20;;;1.50;;
63394;SDS011;49531;-34.520;150.798;2023-08-12T10:55:19;3.00;;;1.52;;
63394;SDS011;49531;-34.520;150.798;2023-08-12T10:57:48;2.35;;;1.52;;
63394;SDS011;49531;-34.520;150.798;2023-08-12T11:00:17;3.13;;;1.70;;
63394;SDS011;49531;-34.520;150.798;2023-08-12T11:02:49;1.58;;;1.30;;
63394;SDS011;49531;-34.520;150.798;2023-08-12T11:05:18;2.72;;;1.60;;
63394;SDS011;49531;-34.520;150.798;2023-08-12T11:10:32;2.88;;;1.48;;
63394;SDS011;49531;-34.520;150.798;2023-08-12T11:13:00;2.47;;;1.73;;
63394;SDS011;49531;-34.520;150.798;2023-08-12T11:15:32;2.40;;;1.60;;
63394;SDS011;49531;-34.520;150.798;2023-08-12T11:18:03;3.25;;;1.52;;
63394;SDS011;49531;-34.520;150.798;2023-08-12T11:20:41;2.45;;;1.55;;
63394;SDS011;49531;-34.520;150.798;2023-08-12T11:23:10;2.47;;;1.70;;
63394;SDS011;49531;-34.520;150.798;2023-08-12T11:25:38;3.65;;;1.52;;
63394;SDS011;49531;-34.520;150.798;2023-08-12T11:28:07;3.17;;;1.60;;
63394;SDS011;49531;-34.520;150.798;2023-08-12T11:30:34;2.03;;;1.38;;
63394;SDS011;49531;-34.520;150.798;2023-08-12T11:33:02;2.40;;;1.40;;
63394;SDS011;49531;-34.520;150.798;2023-08-12T11:35:29;2.70;;;1.50;;
63394;SDS011;49531;-34.520;150.798;2023-08-12T11:37:57;1.98;;;1.30;;
63394;SDS011;49531;-34.520;150.798;2023-08-12T11:40:26;2.13;;;1.50;;
63394;SDS011;49531;-34.520;150.798;2023-08-12T11:42:55;2.38;;;1.52;;
63394;SDS011;49531;-34.520;150.798;2023-08-12T11:45:23;3.65;;;1.60;;
63394;SDS011;49531;-34.520;150.798;2023-08-12T11:47:51;2.58;;;1.35;;
63394;SDS011;49531;-34.520;150.798;2023-08-12T11:50:19;3.50;;;1.50;;
63394;SDS011;49531;-34.520;150.798;2023-08-12T11:52:47;2.42;;;1.60;;
63394;SDS011;49531;-34.520;150.798;2023-08-12T11:55:15;3.33;;;1.80;;
63394;SDS011;49531;-34.520;150.798;2023-08-12T11:57:43;1.85;;;1.40;;
63394;SDS011;49531;-34.520;150.798;2023-08-12T12:00:10;1.65;;;1.35;;
63394;SDS011;49531;-34.520;150.798;2023-08-12T12:02:40;2.20;;;1.50;;
63394;SDS011;49531;-34.520;150.798;2023-08-12T12:05:14;2.25;;;1.52;;
63394;SDS011;49531;-34.520;150.798;2023-08-12T12:07:42;2.45;;;1.30;;
63394;SDS011;49531;-34.520;150.798;2023-08-12T12:10:30;2.75;;;1.50;;
63394;SDS011;49531;-34.520;150.798;2023-08-12T12:13:01;3.08;;;1.45;;
63394;SDS011;49531;-34.520;150.798;2023-08-12T12:15:30;2.47;;;1.50;;
63394;SDS011;49531;-34.520;150.798;2023-08-12T12:17:58;2.38;;;1.33;;
63394;SDS011;49531;-34.520;150.798;2023-08-12T12:20:25;3.38;;;1.40;;
63394;SDS011;49531;-34.520;150.798;2023-08-12T12:22:54;2.90;;;1.50;;
63394;SDS011;49531;-34.520;150.798;2023-08-12T12:25:22;2.42;;;1.27;;
63394;SDS011;49531;-34.520;150.798;2023-08-12T12:27:49;4.70;;;1.70;;
63394;SDS011;49531;-34.520;150.798;2023-08-12T12:30:16;3.80;;;1.40;;
63394;SDS011;49531;-34.520;150.798;2023-08-12T12:32:44;2.42;;;1.50;;
63394;SDS011;49531;-34.520;150.798;2023-08-12T12:35:11;2.45;;;1.40;;
63394;SDS011;49531;-34.520;150.798;2023-08-12T12:37:39;4.50;;;1.48;;
63394;SDS011;49531;-34.520;150.798;2023-08-12T12:40:07;3.03;;;1.40;;
63394;SDS011;49531;-34.520;150.798;2023-08-12T12:42:35;2.40;;;1.50;;
63394;SDS011;49531;-34.520;150.798;2023-08-12T12:45:04;2.13;;;1.40;;
63394;SDS011;49531;-34.520;150.798;2023-08-12T12:47:31;1.92;;;1.30;;
63394;SDS011;49531;-34.520;150.798;2023-08-12T12:49:58;3.90;;;1.50;;
63394;SDS011;49531;-34.520;150.798;2023-08-12T12:52:26;2.47;;;1.40;;
63394;SDS011;49531;-34.520;150.798;2023-08-12T12:54:53;2.00;;;1.40;;
63394;SDS011;49531;-34.520;150.798;2023-08-12T12:57:21;2.67;;;1.40;;
63394;SDS011;49531;-34.520;150.798;2023-08-12T12:59:48;2.17;;;1.50;;
63394;SDS011;49531;-34.520;150.798;2023-08-12T13:02:15;4.53;;;1.58;;
63394;SDS011;49531;-34.520;150.798;2023-08-12T13:04:42;3.20;;;1.50;;
63394;SDS011;49531;-34.520;150.798;2023-08-12T13:07:10;1.90;;;1.30;;
63394;SDS011;49531;-34.520;150.798;2023-08-12T13:09:37;2.17;;;1.48;;
63394;SDS011;49531;-34.520;150.798;2023-08-12T13:12:04;1.88;;;1.60;;
63394;SDS011;49531;-34.520;150.798;2023-08-12T13:14:31;2.80;;;1.60;;
63394;SDS011;49531;-34.520;150.798;2023-08-12T13:16:58;2.00;;;1.40;;
63394;SDS011;49531;-34.520;150.798;2023-08-12T13:19:25;2.15;;;1.60;;
63394;SDS011;49531;-34.520;150.798;2023-08-12T13:21:52;1.95;;;1.30;;
63394;SDS011;49531;-34.520;150.798;2023-08-12T13:24:19;3.00;;;1.48;;
63394;SDS011;49531;-34.520;150.798;2023-08-12T13:26:46;2.80;;;1.60;;
63394;SDS011;49531;-34.520;150.798;2023-08-12T13:29:14;4.35;;;1.60;;
63394;SDS011;49531;-34.520;150.798;2023-08-12T13:31:41;3.60;;;1.70;;
63394;SDS011;49531;-34.520;150.798;2023-08-12T13:34:08;4.93;;;1.65;;
63394;SDS011;49531;-34.520;150.798;2023-08-12T13:36:35;1.98;;;1.40;;
63394;SDS011;49531;-34.520;150.798;2023-08-12T13:39:02;2.28;;;1.70;;
63394;SDS011;49531;-34.520;150.798;2023-08-12T13:41:29;4.88;;;2.00;;
63394;SDS011;49531;-34.520;150.798;2023-08-12T13:43:56;3.17;;;1.85;;
63394;SDS011;49531;-34.520;150.798;2023-08-12T13:46:23;1.95;;;1.70;;
63394;SDS011;49531;-34.520;150.798;2023-08-12T13:48:50;2.38;;;1.90;;
63394;SDS011;49531;-34.520;150.798;2023-08-12T13:51:18;2.88;;;1.90;;
63394;SDS011;49531;-34.520;150.798;2023-08-12T13:53:45;2.15;;;1.85;;
63394;SDS011;49531;-34.520;150.798;2023-08-12T13:56:12;2.45;;;1.80;;
63394;SDS011;49531;-34.520;150.798;2023-08-12T13:58:40;2.58;;;2.00;;
63394;SDS011;49531;-34.520;150.798;2023-08-12T14:01:07;2.55;;;2.00;;
63394;SDS011;49531;-34.520;150.798;2023-08-12T14:03:34;3.25;;;2.10;;
63394;SDS011;49531;-34.520;150.798;2023-08-12T14:06:02;2.33;;;1.90;;
63394;SDS011;49531;-34.520;150.798;2023-08-12T14:08:30;3.03;;;2.10;;
63394;SDS011;49531;-34.520;150.798;2023-08-12T14:10:57;2.17;;;1.80;;
63394;SDS011;49531;-34.520;150.798;2023-08-12T14:13:24;3.05;;;2.00;;
63394;SDS011;49531;-34.520;150.798;2023-08-12T14:15:52;3.03;;;1.65;;
63394;SDS011;49531;-34.520;150.798;2023-08-12T14:18:19;2.90;;;1.90;;